Accueil
METAR-TAF:

METAR-TAF

Aéroports :

Milan, Italie

Aéroport de Milan Malpensa

latitude: 45-37N, longitude: 008-44E, altitude: 234 m

Observation

Le bulletin a été fait il y a 31 minutes, à 10:20 UTC
Vent 5 kt de sud/sud-ouest, variant entre sud-est et ouest
Température 23°C
Humidité 53%
Pression 1003 hPa
Visibilité 10 km ou plus
Nuages épars à une hauteur de 3500 ft

METAR: LIMC 291020Z 20005KT 140V280 9999 SCT035 23/13 Q1003 NOSIG

Heure: 12:51 (10:51 UTC)

Prévision

Le bulletin a été fait il y a 5 heures et 51 minutes, à 05:00 UTC
Prévision valable du 29 à 06 UTC au 30 à 12 UTC
Vent 5 kt de direction variable
Visibilité 10 km ou plus
Nuages épars à une hauteur de 5000 ft
Temporairement
du 29 à 12 UTC au 30 à 06 UTC
Visibilité: 4000 m
orage, pluie

TAF: LIMC 290500Z 2906/3012 VRB05KT 9999 SCT050 TEMPO 2912/3006 4000 TSRA

Observations et prévisions météorologiques de plus de 4000 aéroports (messages METAR et TAF).

Les stations disponibles sont représentées par des disques jaunes et rouges sur la carte.

Passer la souris dessus pour voir le nom de la station.

Cliquer dessus pour voir les observations et prévisions météorologiques.

Pour changer de carte: cliquez sur les boutons verts avec une croix noire pour zoomer, sur le bouton vert avec un tiret pour effectuer un zoom arrière, ou sur les flèches vertes pour les cartes adjacentes.


METAR-TAF: